KCWA

Central Wisconsin Airport

Mosinee, Wisconsin, USA
METAR KCWA 161552Z 30009KT 10SM OVC018 00/M02 A2986
Observed Flight Rules
Nov-16 @ 15:52 UTC (20 minutes ago) Marginal Visual Flight Rules
Wind Visibility Clouds
300° at 9 knots 10 miles
  • Overcast at 1,800' AGL
Temperatures Readings
Current 0°C / 32°F
Dewpoint -2°C / 28°F
Humidity 87%
Altimeter 29.86" Hg
Pressure 1011 hPa
Elevation 389
METAR KCWA 161552Z 30009KT 10SM OVC018 00/M02 A2986
Observed Flight Rules
Nov-16 @ 15:52 UTC
(20 minutes ago)
MVFR
Wind Visibility
300° at 9 knots 10 miles
Clouds
  • Overcast at 1,800' AGL
Temperature Dewpoint
0°C / 32°F -2°C / 28°F
Humidity Altimeter Pressure
87% 29.86" Hg 1011 hPa